Time;durP1;ratioP1;P1;durP2;ratioP2;P2;SDS_P1;SDS_P2;PMS_P1;PMS_P2;Temp;Humidity;BMP_temperature;BMP_pressure;BME280_temperature;BME280_humidity;BME280_pressure;Samples;Min_cycle;Max_cycle;Signal;HPM_P1;HPM_P2
2022/02/25 00:01:51;;;;;;;1.75;1.05;;;;;;;2.19;90.75;99076.03;5064612;28;20017;-70
2022/02/25 00:04:16;;;;;;;6.22;0.82;;;;;;;2.18;90.99;99087.25;5064476;28;20048;-70
2022/02/25 00:06:42;;;;;;;1.58;1.08;;;;;;;2.17;91.06;99082.91;5064046;28;20032;-70
2022/02/25 00:09:07;;;;;;;6.43;0.93;;;;;;;2.12;91.15;99084.53;5064420;28;20025;-70
2022/02/25 00:11:34;;;;;;;10.32;0.98;;;;;;;2.17;91.13;99088.09;5064172;28;20316;-70
2022/02/25 00:13:59;;;;;;;7.38;0.95;;;;;;;2.15;91.32;99084.56;5064217;28;20028;-70
2022/02/25 00:16:25;;;;;;;6.03;1.52;;;;;;;2.10;91.19;99096.59;5064700;28;20020;-70
2022/02/25 00:18:50;;;;;;;1.38;0.68;;;;;;;2.06;91.53;99095.66;5064665;28;20047;-70
2022/02/25 00:21:16;;;;;;;5.07;0.65;;;;;;;2.00;91.65;99095.50;5064679;28;20056;-70
2022/02/25 00:23:41;;;;;;;10.05;1.63;;;;;;;1.95;91.98;99099.75;5064431;28;20021;-70
2022/02/25 00:26:07;;;;;;;13.88;1.35;;;;;;;1.93;91.87;99095.38;5064539;28;20021;-70
2022/02/25 00:28:33;;;;;;;1.75;0.50;;;;;;;1.90;92.53;99106.56;5064547;28;20075;-70
2022/02/25 00:30:58;;;;;;;6.10;1.73;;;;;;;1.90;92.78;99103.97;5064524;28;20272;-69
2022/02/25 00:33:24;;;;;;;2.95;0.88;;;;;;;1.92;92.72;99106.59;5063674;28;20043;-69
2022/02/25 00:35:50;;;;;;;1.80;0.95;;;;;;;1.89;92.84;99101.31;5063855;28;20012;-69
2022/02/25 00:38:19;;;;;;;4.18;0.82;;;;;;;1.77;92.74;99111.47;5064008;28;20186;-69
2022/02/25 00:40:46;;;;;;;2.05;1.10;;;;;;;1.80;93.31;99111.50;5063830;28;20021;-69
2022/02/25 00:43:11;;;;;;;6.63;0.95;;;;;;;1.72;93.30;99113.06;5063898;28;20021;-69
2022/02/25 00:45:37;;;;;;;3.30;1.00;;;;;;;1.71;93.76;99111.31;5063550;28;20024;-69
2022/02/25 00:48:03;;;;;;;10.05;1.15;;;;;;;1.69;93.65;99123.38;5063835;28;20042;-69
2022/02/25 00:50:29;;;;;;;4.18;0.73;;;;;;;1.61;93.62;99119.69;5063715;28;20012;-70
2022/02/25 00:52:55;;;;;;;5.78;0.95;;;;;;;1.57;94.06;99123.06;5063812;28;20396;-70
2022/02/25 00:55:21;;;;;;;6.05;1.45;;;;;;;1.58;94.18;99119.66;5063565;28;20020;-70
2022/02/25 00:57:47;;;;;;;10.02;1.17;;;;;;;1.47;94.60;99121.09;5063596;28;20247;-70
2022/02/25 01:00:15;;;;;;;7.50;0.88;;;;;;;1.39;95.00;99133.88;5063570;28;20051;-70
2022/02/25 01:02:41;;;;;;;7.65;1.08;;;;;;;1.37;95.22;99124.31;5063337;28;20048;-70
2022/02/25 01:05:09;;;;;;;2.22;0.85;;;;;;;1.33;94.94;99117.31;5063367;28;20013;-70
2022/02/25 01:07:35;;;;;;;4.05;1.00;;;;;;;1.29;95.33;99123.25;5063741;28;20029;-70
2022/02/25 01:10:00;;;;;;;2.42;1.05;;;;;;;1.22;95.67;99123.94;5063129;28;20013;-70
2022/02/25 01:12:26;;;;;;;4.85;1.35;;;;;;;1.19;95.93;99129.03;5063460;28;20063;-70
2022/02/25 01:14:51;;;;;;;1.67;0.47;;;;;;;1.10;96.15;99128.81;5063297;28;20013;-70
2022/02/25 01:17:17;;;;;;;0.98;0.60;;;;;;;1.09;96.76;99137.44;5063358;28;20204;-70
2022/02/25 01:19:42;;;;;;;7.97;0.85;;;;;;;1.05;96.32;99135.59;5063408;28;20031;-70
2022/02/25 01:22:07;;;;;;;3.88;1.02;;;;;;;1.06;96.18;99147.72;5063793;28;20027;-70
2022/02/25 01:24:33;;;;;;;9.55;1.33;;;;;;;1.04;96.30;99149.41;5063613;28;20021;-70
2022/02/25 01:26:58;;;;;;;2.03;0.88;;;;;;;1.01;96.81;99154.53;5063790;28;20255;-70
2022/02/25 01:29:23;;;;;;;2.60;0.98;;;;;;;0.99;96.83;99154.47;5063769;28;20021;-70
2022/02/25 01:31:49;;;;;;;3.92;0.73;;;;;;;0.94;96.71;99153.47;5063281;28;20031;-70
2022/02/25 01:34:17;;;;;;;2.45;0.80;;;;;;;0.97;96.83;99158.72;5062974;28;20236;-70
2022/02/25 01:36:43;;;;;;;6.18;1.52;;;;;;;1.06;97.06;99160.69;5063183;28;20081;-70
2022/02/25 01:39:08;;;;;;;2.08;0.95;;;;;;;1.11;97.00;99156.50;5063091;28;20017;-70
2022/02/25 01:41:34;;;;;;;12.75;1.40;;;;;;;1.12;97.09;99163.44;5063081;28;20024;-70
2022/02/25 01:44:40;;;;;;;8.13;0.77;;;;;;;1.17;96.93;99165.28;5063061;28;20021;-70
2022/02/25 01:47:07;;;;;;;8.85;0.70;;;;;;;1.14;96.72;99165.22;5041960;28;20029;-70
2022/02/25 01:49:33;;;;;;;1.48;0.50;;;;;;;1.06;96.67;99165.88;5041892;28;20029;-70
2022/02/25 01:52:04;;;;;;;3.40;1.27;;;;;;;1.02;96.77;99164.91;5029770;28;20060;-70
2022/02/25 01:54:31;;;;;;;6.03;0.63;;;;;;;1.03;96.71;99164.06;5035523;28;20347;-70
2022/02/25 01:56:58;;;;;;;0.52;0.30;;;;;;;1.02;97.14;99164.03;5032322;28;20021;-70
2022/02/25 01:59:25;;;;;;;9.55;0.98;;;;;;;1.08;97.10;99167.66;5028773;28;20245;-70
2022/02/25 02:01:51;;;;;;;3.75;1.35;;;;;;;1.07;96.91;99175.38;5036426;28;20240;-70
2022/02/25 02:04:16;;;;;;;3.15;0.93;;;;;;;1.16;96.99;99170.44;5025669;28;20088;-70
2022/02/25 02:06:42;;;;;;;11.90;1.40;;;;;;;1.25;97.06;99171.56;5032634;28;20133;-70
2022/02/25 02:09:08;;;;;;;2.10;0.95;;;;;;;1.37;96.73;99176.19;5032917;28;20022;-70
2022/02/25 02:11:36;;;;;;;4.25;1.05;;;;;;;1.46;96.26;99166.03;5025060;28;20037;-70
2022/02/25 02:14:05;;;;;;;5.15;0.77;;;;;;;1.64;95.41;99179.44;5038170;28;20386;-70
2022/02/25 02:16:31;;;;;;;14.10;1.25;;;;;;;1.66;95.13;99175.19;5036033;28;20021;-70
2022/02/25 02:18:57;;;;;;;2.00;1.23;;;;;;;1.71;95.01;99183.97;5062227;28;20202;-70
2022/02/25 02:21:27;;;;;;;10.05;1.40;;;;;;;1.78;94.75;99185.84;5062756;28;20031;-70
2022/02/25 02:23:53;;;;;;;9.18;1.73;;;;;;;1.81;94.80;99180.75;5062599;28;20023;-70
2022/02/25 02:26:19;;;;;;;13.70;1.65;;;;;;;1.80;94.54;99178.97;5062721;28;20021;-70
2022/02/25 02:28:44;;;;;;;10.68;0.90;;;;;;;1.81;94.61;99196.31;5062705;28;20020;-69
2022/02/25 02:31:10;;;;;;;5.43;1.63;;;;;;;1.85;94.22;99182.56;5062801;28;20021;-69
2022/02/25 02:33:36;;;;;;;4.90;1.17;;;;;;;1.73;94.07;99183.16;5066084;28;20016;-69
2022/02/25 02:36:03;;;;;;;9.77;1.52;;;;;;;1.72;94.35;99185.72;5066305;28;20024;-69
2022/02/25 02:38:29;;;;;;;8.90;1.25;;;;;;;1.86;94.19;99184.31;5065915;28;20017;-69
2022/02/25 02:40:54;;;;;;;6.32;1.67;;;;;;;1.84;93.83;99186.88;5066016;28;20021;-69
2022/02/25 02:43:20;;;;;;;16.38;1.25;;;;;;;1.81;93.96;99193.72;5066046;28;20336;-69
2022/02/25 02:45:45;;;;;;;5.70;1.48;;;;;;;1.77;93.78;99190.16;5066018;28;20085;-69
2022/02/25 02:48:11;;;;;;;21.00;1.40;;;;;;;1.76;94.00;99188.41;5065958;28;20247;-69
2022/02/25 02:50:37;;;;;;;10.45;0.98;;;;;;;1.77;93.71;99179.78;5065741;28;20020;-69
2022/02/25 02:53:02;;;;;;;5.90;0.80;;;;;;;1.79;93.71;99179.81;5065895;28;20024;-69
2022/02/25 02:55:27;;;;;;;0.98;0.57;;;;;;;1.79;93.97;99178.13;5065557;28;20016;-69
2022/02/25 02:57:53;;;;;;;2.88;1.00;;;;;;;1.72;94.05;99191.78;5065773;28;20355;-69
2022/02/25 03:00:19;;;;;;;6.72;1.42;;;;;;;1.74;94.23;99186.63;5065615;28;20240;-69
2022/02/25 03:02:45;;;;;;;10.25;1.30;;;;;;;1.75;94.00;99183.19;5064417;28;20021;-69
2022/02/25 03:05:11;;;;;;;1.73;0.68;;;;;;;1.76;93.98;99198.78;5065410;28;20021;-69
2022/02/25 03:07:37;;;;;;;11.57;1.05;;;;;;;1.76;94.01;99195.31;5065699;28;20020;-69
2022/02/25 03:10:05;;;;;;;6.38;1.13;;;;;;;1.81;93.89;99196.31;5065463;28;20216;-70
2022/02/25 03:12:31;;;;;;;13.60;1.98;;;;;;;1.79;93.85;99193.69;5065703;28;20017;-70
2022/02/25 03:14:57;;;;;;;10.05;1.48;;;;;;;1.81;93.95;99193.72;5065604;28;20036;-70
2022/02/25 03:17:22;;;;;;;3.05;1.30;;;;;;;1.84;93.52;99201.59;5065274;28;20024;-70
2022/02/25 03:19:48;;;;;;;1.63;1.00;;;;;;;1.84;93.46;99202.44;5065524;28;20028;-70
2022/02/25 03:22:13;;;;;;;5.97;1.52;;;;;;;1.75;93.71;99197.06;5065093;28;20021;-70
2022/02/25 03:24:39;;;;;;;11.07;1.23;;;;;;;1.73;93.99;99203.03;5065243;28;20032;-70
2022/02/25 03:27:04;;;;;;;10.70;1.55;;;;;;;1.75;93.89;99203.94;5065324;28;20064;-70
2022/02/25 03:29:30;;;;;;;14.27;1.80;;;;;;;1.75;93.94;99201.34;5065200;28;20032;-70
2022/02/25 03:31:56;;;;;;;2.53;1.02;;;;;;;1.69;93.79;99202.09;5065141;28;20017;-70
2022/02/25 03:34:21;;;;;;;19.83;1.95;;;;;;;1.72;93.91;99206.47;5065286;28;20104;-70
2022/02/25 03:36:47;;;;;;;5.85;1.48;;;;;;;1.65;93.71;99204.56;5064943;28;20080;-70
2022/02/25 03:39:12;;;;;;;17.63;1.88;;;;;;;1.69;93.78;99214.19;5064861;28;20088;-70
2022/02/25 03:41:37;;;;;;;10.57;1.15;;;;;;;1.67;93.90;99215.84;5064978;28;20028;-70
2022/02/25 03:44:03;;;;;;;6.13;1.13;;;;;;;1.67;93.80;99218.44;5064302;28;20016;-70
2022/02/25 03:46:29;;;;;;;11.90;0.82;;;;;;;1.65;93.99;99222.72;5064920;28;20028;-70
2022/02/25 03:48:54;;;;;;;10.50;1.58;;;;;;;1.59;94.05;99215.66;5064932;28;20313;-70
2022/02/25 03:51:21;;;;;;;7.78;1.25;;;;;;;1.57;94.12;99227.72;5064661;28;20339;-70
2022/02/25 03:53:48;;;;;;;3.50;0.82;;;;;;;1.60;94.11;99232.09;5064532;28;20119;-70
2022/02/25 03:56:15;;;;;;;1.83;0.80;;;;;;;1.51;94.00;99224.09;5064680;28;20025;-70
2022/02/25 03:58:41;;;;;;;2.92;0.85;;;;;;;1.51;94.39;99231.88;5064558;28;20251;-70
2022/02/25 04:01:06;;;;;;;2.60;1.27;;;;;;;1.45;94.31;99226.50;5051115;28;20049;-70
2022/02/25 04:03:31;;;;;;;8.50;1.17;;;;;;;1.36;94.83;99234.94;5056564;28;20040;-70
2022/02/25 04:05:57;;;;;;;16.50;1.88;;;;;;;1.37;95.07;99241.03;5064402;28;20376;-70
2022/02/25 04:08:22;;;;;;;8.90;1.33;;;;;;;1.39;94.73;99236.75;5054260;28;20048;-70
2022/02/25 04:10:48;;;;;;;10.18;1.00;;;;;;;1.38;95.04;99237.56;5048367;28;20017;-70
2022/02/25 04:13:13;;;;;;;4.05;1.67;;;;;;;1.37;95.01;99246.22;5059364;28;20017;-70
2022/02/25 04:15:39;;;;;;;7.75;1.77;;;;;;;1.38;94.99;99241.06;5050700;28;20013;-70
2022/02/25 04:18:04;;;;;;;11.23;1.05;;;;;;;1.33;94.59;99239.19;5063052;28;20017;-70
2022/02/25 04:20:30;;;;;;;4.95;1.30;;;;;;;1.33;94.95;99242.63;5054284;28;20013;-70
2022/02/25 04:22:55;;;;;;;6.03;2.08;;;;;;;1.31;95.07;99243.44;5056899;28;20017;-70
2022/02/25 04:25:21;;;;;;;1.52;0.80;;;;;;;1.30;94.82;99242.56;5045693;28;20029;-70
2022/02/25 04:27:46;;;;;;;4.53;1.40;;;;;;;1.28;95.10;99243.38;5060025;28;20025;-70
2022/02/25 04:30:13;;;;;;;1.98;0.90;;;;;;;1.30;95.20;99246.88;5062669;28;20021;-70
2022/02/25 04:32:38;;;;;;;20.05;2.40;;;;;;;1.29;95.16;99239.94;5045683;28;20024;-70
2022/02/25 04:35:04;;;;;;;8.38;1.40;;;;;;;1.26;95.03;99238.13;5060651;28;20013;-70
2022/02/25 04:37:30;;;;;;;3.25;0.88;;;;;;;1.24;95.22;99231.16;5061695;28;20055;-70
2022/02/25 04:39:56;;;;;;;3.25;1.25;;;;;;;1.20;94.88;99235.38;5044451;28;20017;-70
2022/02/25 04:42:23;;;;;;;5.18;1.48;;;;;;;1.17;95.34;99234.44;5044394;28;20321;-70
2022/02/25 04:44:48;;;;;;;9.25;1.40;;;;;;;1.13;95.73;99242.94;5056582;28;20243;-70
2022/02/25 04:47:14;;;;;;;2.35;0.68;;;;;;;1.11;95.62;99247.22;5059397;28;20056;-70
2022/02/25 04:49:39;;;;;;;7.40;1.48;;;;;;;1.08;95.33;99247.16;5046183;28;20060;-70
2022/02/25 04:52:05;;;;;;;7.40;1.17;;;;;;;1.04;95.56;99247.91;5047708;28;20055;-70
2022/02/25 04:54:30;;;;;;;19.13;1.95;;;;;;;1.06;95.68;99251.41;5044718;28;20339;-70
2022/02/25 04:56:56;;;;;;;7.20;1.35;;;;;;;1.06;95.76;99256.56;5044248;28;20224;-70
2022/02/25 04:59:21;;;;;;;4.90;1.33;;;;;;;1.04;95.91;99258.28;5055329;28;20037;-70
2022/02/25 05:01:47;;;;;;;11.75;0.88;;;;;;;1.12;96.18;99267.13;5062189;28;20021;-70
2022/02/25 05:04:13;;;;;;;8.93;1.38;;;;;;;1.23;95.81;99269.16;5062045;28;20051;-70
2022/02/25 05:06:39;;;;;;;10.77;1.70;;;;;;;1.41;95.98;99267.06;5047014;28;20316;-70
2022/02/25 05:09:05;;;;;;;5.88;1.45;;;;;;;1.42;95.84;99267.94;5045184;28;20088;-70
2022/02/25 05:11:30;;;;;;;10.32;1.38;;;;;;;1.48;95.57;99274.19;5050796;28;20174;-70
2022/02/25 05:13:56;;;;;;;3.38;0.90;;;;;;;1.56;95.58;99283.06;5061755;28;20182;-70
2022/02/25 05:22:07;;;;;;;11.10;1.73;;;;;;;1.67;95.01;99280.72;5076997;28;20201;-70
2022/02/25 05:24:32;;;;;;;2.80;0.95;;;;;;;1.72;94.49;99284.31;5065828;28;20059;-70
2022/02/25 05:26:57;;;;;;;3.63;1.40;;;;;;;1.63;94.65;99278.88;5047908;28;20049;-70
2022/02/25 05:29:23;;;;;;;5.57;1.17;;;;;;;1.64;94.99;99275.44;5029359;28;20026;-69
2022/02/25 05:31:48;;;;;;;10.70;1.85;;;;;;;1.69;94.50;99290.31;5039092;28;20022;-70
2022/02/25 05:34:14;;;;;;;5.05;1.15;;;;;;;1.74;94.72;99293.03;5053984;28;20017;-70
2022/02/25 05:36:39;;;;;;;6.10;1.35;;;;;;;1.79;94.84;99299.19;5060192;28;20088;-70
2022/02/25 05:39:05;;;;;;;12.15;2.13;;;;;;;1.79;94.60;99292.28;5061516;28;20016;-70
2022/02/25 05:41:30;;;;;;;9.85;1.38;;;;;;;1.88;94.43;99302.03;5047421;28;20021;-70
2022/02/25 05:43:55;;;;;;;6.25;1.50;;;;;;;1.93;94.12;99303.03;5047333;28;20278;-70
2022/02/25 05:46:21;;;;;;;7.53;1.25;;;;;;;1.99;93.99;99300.56;5043691;28;20041;-70
2022/02/25 05:48:46;;;;;;;12.85;2.15;;;;;;;2.00;93.70;99297.16;5047336;28;20096;-70
2022/02/25 05:51:12;;;;;;;10.15;1.58;;;;;;;2.07;93.30;99299.94;5061891;28;20013;-70
2022/02/25 05:53:37;;;;;;;15.50;2.33;;;;;;;2.04;92.98;99298.97;5062738;28;20264;-70
2022/02/25 05:56:03;;;;;;;8.27;1.42;;;;;;;1.96;93.09;99300.47;5059230;28;20032;-70
2022/02/25 05:58:28;;;;;;;18.55;1.48;;;;;;;1.94;92.84;99302.19;5049598;28;20048;-70
2022/02/25 06:00:53;;;;;;;3.45;1.20;;;;;;;1.84;93.16;99302.78;5049217;28;20044;-70
2022/02/25 06:03:19;;;;;;;8.07;2.03;;;;;;;1.84;93.19;99305.38;5061339;28;20024;-70
2022/02/25 06:05:44;;;;;;;10.05;1.52;;;;;;;1.80;93.11;99303.53;5063978;28;20054;-70
2022/02/25 06:08:10;;;;;;;10.73;1.48;;;;;;;1.80;93.24;99311.31;5065796;28;20312;-70
2022/02/25 06:10:35;;;;;;;7.85;1.77;;;;;;;1.85;93.38;99317.53;5058710;28;20083;-70
2022/02/25 06:13:02;;;;;;;10.43;1.85;;;;;;;1.83;93.39;99320.06;5059954;28;20021;-70
2022/02/25 06:15:27;;;;;;;5.63;1.33;;;;;;;1.80;93.46;99334.66;5056511;28;20066;-70
2022/02/25 06:17:52;;;;;;;11.30;1.48;;;;;;;1.78;93.43;99350.19;5054284;28;20322;-70
2022/02/25 06:20:19;;;;;;;13.18;1.70;;;;;;;1.79;93.25;99353.69;5064483;28;20067;-70
2022/02/25 06:22:46;;;;;;;3.50;1.10;;;;;;;1.72;93.21;99349.19;5066404;28;20020;-70
2022/02/25 06:25:12;;;;;;;6.75;1.50;;;;;;;1.69;93.43;99351.69;5051410;28;20028;-70
2022/02/25 06:27:38;;;;;;;12.18;1.90;;;;;;;1.65;93.66;99355.06;5046923;28;20032;-70
2022/02/25 06:30:07;;;;;;;8.77;1.42;;;;;;;1.58;93.95;99364.38;5046904;28;20021;-70
2022/02/25 06:32:32;;;;;;;1.73;0.68;;;;;;;1.56;93.98;99365.19;5063158;28;20020;-70
2022/02/25 06:34:58;;;;;;;20.02;1.70;;;;;;;1.47;93.98;99354.53;5055304;28;20028;-70
2022/02/25 06:37:24;;;;;;;10.82;1.48;;;;;;;1.45;94.30;99356.19;5047059;28;20305;-70
2022/02/25 06:39:50;;;;;;;2.20;1.13;;;;;;;1.39;94.36;99361.25;5062932;28;20023;-70
2022/02/25 06:42:16;;;;;;;2.63;1.00;;;;;;;1.44;94.33;99359.63;5066069;28;20236;-70
2022/02/25 06:44:41;;;;;;;7.28;1.75;;;;;;;1.36;94.17;99368.94;5051528;28;20014;-70
2022/02/25 06:47:07;;;;;;;1.85;1.00;;;;;;;1.34;94.30;99366.31;5063565;28;20021;-70
2022/02/25 06:49:33;;;;;;;5.95;1.25;;;;;;;1.37;94.58;99375.88;5064558;28;20021;-70
2022/02/25 06:51:59;;;;;;;2.47;1.25;;;;;;;1.43;94.43;99374.31;5066001;28;20024;-70
2022/02/25 06:54:24;;;;;;;8.10;2.33;;;;;;;1.54;94.42;99377.22;5048099;28;20224;-70
2022/02/25 06:56:50;;;;;;;10.43;1.23;;;;;;;1.59;94.33;99371.31;5058562;28;20020;-70
2022/02/25 06:59:15;;;;;;;5.72;1.88;;;;;;;1.58;94.30;99373.88;5065608;28;20113;-70
2022/02/25 07:01:41;;;;;;;14.32;2.15;;;;;;;1.78;94.48;99385.69;5048776;28;20385;-70
2022/02/25 07:04:06;;;;;;;8.85;1.40;;;;;;;1.78;93.70;99383.09;5065596;28;20309;-70
2022/02/25 07:06:33;;;;;;;5.00;1.40;;;;;;;1.89;93.77;99376.44;5066094;28;20194;-70
2022/02/25 07:08:59;;;;;;;10.65;1.75;;;;;;;1.96;93.55;99389.63;5066120;28;20371;-70
2022/02/25 07:11:24;;;;;;;3.85;1.40;;;;;;;1.98;93.49;99389.66;5066033;28;20025;-70
2022/02/25 07:13:49;;;;;;;4.88;1.42;;;;;;;2.10;93.55;99382.22;5066012;28;20099;-70
2022/02/25 07:16:15;;;;;;;6.28;1.90;;;;;;;2.21;93.41;99386.84;5065922;28;20062;-70
2022/02/25 07:18:41;;;;;;;14.23;2.25;;;;;;;2.35;93.13;99388.88;5065259;28;20025;-70
2022/02/25 07:21:08;;;;;;;1.65;1.15;;;;;;;2.42;92.47;99391.69;5064766;28;20020;-70
2022/02/25 07:23:34;;;;;;;19.13;1.88;;;;;;;2.51;92.55;99402.31;5065557;28;20330;-70
2022/02/25 07:25:59;;;;;;;17.40;2.53;;;;;;;2.57;91.90;99402.47;5064060;28;20024;-70
2022/02/25 07:28:25;;;;;;;5.93;1.60;;;;;;;2.68;92.00;99403.56;5045795;28;20022;-70
2022/02/25 07:30:50;;;;;;;11.00;2.25;;;;;;;2.84;91.36;99408.28;5045734;28;20419;-70
2022/02/25 07:33:16;;;;;;;12.60;2.03;;;;;;;2.90;90.47;99398.03;5054107;28;20024;-70
2022/02/25 07:35:41;;;;;;;13.30;1.92;;;;;;;3.01;90.88;99416.50;5045674;28;20042;-70
2022/02/25 07:38:07;;;;;;;6.35;1.95;;;;;;;3.09;89.94;99413.22;5060537;28;20212;-70
2022/02/25 07:40:32;;;;;;;5.85;2.50;;;;;;;3.17;89.15;99424.69;5063150;28;20039;-70
2022/02/25 07:42:58;;;;;;;17.95;4.65;;;;;;;3.39;88.64;99428.63;5045443;28;20071;-70
2022/02/25 07:45:25;;;;;;;14.40;2.88;;;;;;;3.41;89.13;99414.78;5052977;28;20021;-70
2022/02/25 07:47:51;;;;;;;7.85;2.33;;;;;;;3.75;88.08;99427.66;5062466;28;20039;-70
2022/02/25 07:50:16;;;;;;;6.53;1.73;;;;;;;4.05;87.78;99428.22;5045313;28;20022;-70
2022/02/25 07:52:42;;;;;;;10.23;1.85;;;;;;;4.11;85.85;99423.13;5061582;28;20028;-70
2022/02/25 07:55:09;;;;;;;12.75;2.50;;;;;;;4.14;86.25;99417.97;5045111;28;20287;-70
2022/02/25 07:57:35;;;;;;;6.72;2.05;;;;;;;4.70;84.88;99428.50;5051354;28;20088;-70
2022/02/25 08:00:04;;;;;;;18.40;2.95;;;;;;;5.11;83.42;99430.03;5064194;28;20321;-70
2022/02/25 08:02:30;;;;;;;11.48;2.72;;;;;;;5.34;81.95;99431.22;5060523;28;20372;-70
2022/02/25 08:04:55;;;;;;;4.40;1.70;;;;;;;5.68;80.77;99436.94;5046225;28;20025;-70
2022/02/25 08:07:20;;;;;;;10.75;2.00;;;;;;;6.03;79.17;99435.66;5062399;28;20066;-70
2022/02/25 08:09:46;;;;;;;9.10;2.78;;;;;;;6.15;77.91;99446.25;5060073;28;20336;-70
2022/02/25 08:12:11;;;;;;;8.40;2.78;;;;;;;6.54;76.55;99450.97;5045162;28;20021;-70
2022/02/25 08:14:40;;;;;;;3.97;1.75;;;;;;;6.96;75.40;99451.34;5044918;28;20025;-70
2022/02/25 08:17:05;;;;;;;11.20;2.13;;;;;;;7.28;74.16;99455.06;5045946;28;20025;-70
2022/02/25 08:19:31;;;;;;;15.95;2.60;;;;;;;7.57;72.37;99453.53;5044807;28;20071;-70
2022/02/25 08:21:56;;;;;;;6.97;2.03;;;;;;;7.67;72.16;99450.09;5055241;28;20071;-70
2022/02/25 08:24:22;;;;;;;7.97;2.25;;;;;;;8.05;71.37;99452.88;5062379;28;20032;-70
2022/02/25 08:26:47;;;;;;;5.88;1.92;;;;;;;8.08;70.09;99443.28;5064089;28;20021;-70
2022/02/25 08:29:12;;;;;;;13.45;2.42;;;;;;;8.71;68.74;99448.66;5056223;28;20032;-70
2022/02/25 08:31:38;;;;;;;5.97;2.25;;;;;;;9.02;67.16;99451.31;5060987;28;20071;-70
2022/02/25 08:34:03;;;;;;;20.20;2.35;;;;;;;8.40;68.31;99436.41;5049557;28;20100;-70
2022/02/25 08:36:29;;;;;;;10.52;2.50;;;;;;;9.10;67.89;99447.81;5047519;28;20029;-70
2022/02/25 08:38:55;;;;;;;10.25;2.10;;;;;;;9.62;66.18;99451.22;5062443;28;20028;-70
2022/02/25 08:41:21;;;;;;;11.52;2.70;;;;;;;9.60;65.15;99445.97;5058061;28;20025;-70
2022/02/25 08:43:47;;;;;;;8.07;3.22;;;;;;;9.36;66.60;99460.94;5043748;28;20032;-70
2022/02/25 08:46:13;;;;;;;11.18;2.70;;;;;;;9.54;64.78;99458.25;5027723;28;20096;-70
2022/02/25 08:48:39;;;;;;;9.43;2.40;;;;;;;9.58;64.88;99452.09;5057973;28;20335;-70
2022/02/25 08:51:04;;;;;;;7.03;2.47;;;;;;;9.05;66.74;99448.69;5063392;28;20021;-70
2022/02/25 08:53:30;;;;;;;14.32;1.98;;;;;;;9.76;65.74;99446.78;5055327;28;20036;-70
2022/02/25 08:55:55;;;;;;;19.38;2.33;;;;;;;9.54;65.58;99450.34;5063391;28;20043;-69
2022/02/25 08:58:21;;;;;;;7.35;1.73;;;;;;;9.60;64.94;99459.13;5058793;28;20032;-70
2022/02/25 09:00:46;;;;;;;7.22;2.15;;;;;;;9.73;66.64;99462.56;5060895;28;20049;-70
2022/02/25 09:03:12;;;;;;;12.63;2.28;;;;;;;9.81;65.96;99455.56;5063992;28;20025;-70
2022/02/25 09:05:38;;;;;;;9.40;1.88;;;;;;;10.16;65.05;99453.69;5063926;28;20071;-70
2022/02/25 09:08:04;;;;;;;8.35;1.80;;;;;;;10.26;65.59;99463.28;5063829;28;20070;-70
2022/02/25 09:10:29;;;;;;;7.47;1.92;;;;;;;10.09;65.33;99457.22;5063815;28;20029;-70
2022/02/25 09:12:55;;;;;;;14.00;2.58;;;;;;;10.14;65.62;99461.59;5064221;28;20036;-70
2022/02/25 09:15:25;;;;;;;8.38;2.33;;;;;;;9.85;64.68;99449.41;5064138;28;20028;-70
2022/02/25 09:17:52;;;;;;;10.60;2.10;;;;;;;9.20;67.23;99443.44;5063846;28;20028;-70
2022/02/25 09:20:18;;;;;;;9.48;2.05;;;;;;;8.89;68.55;99452.19;5063397;28;20024;-70
2022/02/25 09:22:44;;;;;;;16.58;2.63;;;;;;;8.75;68.66;99455.69;5063339;28;20052;-70
2022/02/25 09:25:10;;;;;;;10.40;2.08;;;;;;;9.80;68.37;99459.03;5063481;28;20020;-70
2022/02/25 09:27:35;;;;;;;12.30;1.63;;;;;;;10.53;65.27;99460.50;5063564;28;20317;-70
2022/02/25 09:30:02;;;;;;;9.60;1.90;;;;;;;10.32;65.41;99452.72;5063592;28;20060;-70
2022/02/25 09:32:28;;;;;;;6.28;1.90;;;;;;;9.49;68.53;99457.41;5063180;28;20064;-70
2022/02/25 09:34:54;;;;;;;11.48;2.38;;;;;;;9.16;67.50;99457.41;5063687;28;20036;-70
2022/02/25 09:37:19;;;;;;;10.30;2.30;;;;;;;8.67;69.45;99457.41;5063409;28;20195;-70
2022/02/25 09:39:45;;;;;;;6.63;1.77;;;;;;;8.14;69.85;99448.50;5063028;28;20029;-70
2022/02/25 09:42:10;;;;;;;12.45;2.35;;;;;;;8.97;70.23;99466.19;5067185;28;20013;-70
2022/02/25 09:44:36;;;;;;;9.98;1.98;;;;;;;9.77;68.70;99469.56;5067340;28;20025;-70
2022/02/25 09:47:02;;;;;;;10.73;2.22;;;;;;;9.77;70.76;99475.72;5067180;28;20037;-70
2022/02/25 09:49:28;;;;;;;5.18;1.65;;;;;;;9.06;70.33;99472.31;5067290;28;20320;-70
2022/02/25 09:51:55;;;;;;;11.77;2.47;;;;;;;8.78;72.07;99471.44;5067166;28;20051;-70
2022/02/25 09:54:20;;;;;;;14.90;2.47;;;;;;;8.74;72.80;99464.41;5059259;28;20216;-70
2022/02/25 09:56:48;;;;;;;13.70;2.53;;;;;;;8.63;71.41;99474.03;5067123;28;20028;-70
2022/02/25 09:59:17;;;;;;;16.10;2.42;;;;;;;8.30;72.95;99470.47;5066875;28;20131;-70
2022/02/25 10:01:44;;;;;;;5.38;1.77;;;;;;;7.88;74.35;99486.84;5067127;28;20325;-70
2022/02/25 10:04:15;;;;;;;9.23;2.10;;;;;;;7.88;73.96;99480.75;5066931;28;20067;-70
2022/02/25 10:06:42;;;;;;;6.00;1.75;;;;;;;7.63;75.36;99474.50;5066915;28;20029;-70
2022/02/25 10:09:25;;;;;;;12.25;2.28;;;;;;;7.51;75.60;99479.69;5066867;28;20245;-70
2022/02/25 10:12:09;;;;;;;11.73;2.17;;;;;;;7.74;77.59;99487.66;5066848;28;20029;-70
2022/02/25 10:14:46;;;;;;;12.18;2.75;;;;;;;7.58;77.05;99491.06;5066929;28;20308;-70
2022/02/25 10:17:21;;;;;;;15.32;2.58;;;;;;;7.40;77.88;99481.34;5066873;28;20216;-70
2022/02/25 10:19:54;;;;;;;14.05;2.10;;;;;;;7.51;77.50;99484.94;5066992;28;20066;-70
2022/02/25 10:22:23;;;;;;;4.35;1.42;;;;;;;7.50;78.24;99483.16;5059494;28;20027;-70
2022/02/25 10:24:52;;;;;;;21.13;2.08;;;;;;;7.58;78.07;99485.81;5066547;28;20033;-70
2022/02/25 10:27:26;;;;;;;17.02;2.83;;;;;;;8.03;77.06;99481.69;5066481;28;20021;-70
2022/02/25 10:29:58;;;;;;;4.75;1.92;;;;;;;8.30;76.34;99489.72;5066568;28;20025;-70
2022/02/25 10:32:29;;;;;;;9.00;2.00;;;;;;;8.57;75.17;99476.66;5066424;28;20027;-70
2022/02/25 10:34:55;;;;;;;6.22;2.38;;;;;;;8.77;75.22;99485.41;5066768;28;20082;-70
2022/02/25 10:37:20;;;;;;;12.13;1.83;;;;;;;9.05;74.64;99485.44;5066278;28;20243;-70
2022/02/25 10:39:47;;;;;;;16.77;2.15;;;;;;;9.38;73.76;99483.69;5066535;28;20088;-70
2022/02/25 10:42:19;;;;;;;10.90;2.28;;;;;;;9.64;72.37;99483.63;5066459;28;20012;-70
2022/02/25 10:44:53;;;;;;;11.98;2.13;;;;;;;10.06;72.00;99488.78;5066159;28;20017;-70
2022/02/25 10:47:25;;;;;;;9.80;1.90;;;;;;;9.86;71.32;99483.56;5066184;28;20255;-70
2022/02/25 10:50:00;;;;;;;9.27;1.98;;;;;;;9.65;72.97;99485.41;5066220;28;20023;-70
2022/02/25 10:52:32;;;;;;;10.40;2.40;;;;;;;9.27;73.43;99477.53;5065274;28;20309;-70
2022/02/25 10:54:58;;;;;;;8.88;2.08;;;;;;;8.77;73.11;99474.91;5066369;28;20327;-70
2022/02/25 10:57:26;;;;;;;6.13;1.65;;;;;;;8.36;73.78;99466.09;5066141;28;20063;-70
2022/02/25 10:59:53;;;;;;;8.15;1.85;;;;;;;7.93;75.23;99479.91;5066130;28;20103;-70
2022/02/25 11:02:22;;;;;;;12.80;1.65;;;;;;;7.50;76.18;99467.44;5066088;28;20054;-70
2022/02/25 11:05:08;;;;;;;15.13;2.05;;;;;;;7.43;77.61;99470.88;5064925;28;20029;-70
2022/02/25 11:07:37;;;;;;;13.75;2.15;;;;;;;7.33;76.60;99479.56;5066212;28;20025;-70
2022/02/25 11:10:05;;;;;;;11.52;1.60;;;;;;;7.16;77.45;99470.72;5066176;28;20032;-70
2022/02/25 11:12:31;;;;;;;11.18;1.65;;;;;;;6.98;79.09;99467.06;5065790;28;20202;-70
2022/02/25 11:14:57;;;;;;;7.47;1.88;;;;;;;6.97;79.01;99468.81;5065498;28;20023;-70
2022/02/25 11:17:24;;;;;;;11.93;1.48;;;;;;;6.96;79.82;99463.56;5065668;28;20035;-70
2022/02/25 11:19:54;;;;;;;18.13;2.25;;;;;;;6.99;79.84;99472.31;5065531;28;20029;-70
2022/02/25 11:22:20;;;;;;;9.63;1.65;;;;;;;6.85;80.39;99468.72;5065596;28;20021;-69
2022/02/25 11:24:48;;;;;;;15.27;2.25;;;;;;;6.95;81.13;99475.78;5065212;28;20028;-69
2022/02/25 11:27:14;;;;;;;11.60;1.48;;;;;;;6.93;81.19;99472.25;5065453;28;20025;-69
2022/02/25 11:29:53;;;;;;;13.48;1.80;;;;;;;7.11;79.22;99482.88;5064245;28;20028;-69
2022/02/25 11:32:24;;;;;;;7.05;1.65;;;;;;;7.06;78.03;99479.38;5064343;28;20021;-69
2022/02/25 11:34:49;;;;;;;17.53;2.40;;;;;;;7.12;77.29;99484.63;5064487;28;20244;-69
2022/02/25 11:37:41;;;;;;;18.67;1.80;;;;;;;7.06;77.30;99488.94;5063907;28;20062;-69
2022/02/25 11:40:08;;;;;;;17.52;2.03;;;;;;;6.74;78.60;99488.66;5063923;28;20024;-69
2022/02/25 11:42:33;;;;;;;15.27;2.22;;;;;;;6.70;77.91;99479.03;5063883;28;20029;-69